RCH606 EHEH-EGVN
Flight info
| Callsign | RCH606 |
|---|---|
| Flight time | N/A |
| Altitude | 32000 |
| Route | DCT |
| Aircraft | C17/H-SDE1E2FGHIJ5RTUWXY/LB1D1 |
Departure
| Time | N/A |
|---|---|
| Airport | Eindhoven Airport (EHEH) |
Arrival
| Time | 2026-05-06 08:27 |
|---|---|
| Airport | RAF Brize Norton (EGVN) |
| Time | Latitude | Longitude | Altitude | Speed | Heading |
|---|---|---|---|---|---|
| 2026-05-06 08:13 | 51.78863 | -1.62261 | 15853 ft | 293 kts | 54° |
| 2026-05-06 08:13 | 51.79982 | -1.59530 | 15245 ft | 289 kts | 54° |
| 2026-05-06 08:14 | 51.81083 | -1.56830 | 14653 ft | 286 kts | 55° |
| 2026-05-06 08:14 | 51.82170 | -1.54150 | 14073 ft | 283 kts | 54° |
| 2026-05-06 08:14 | 51.83292 | -1.51412 | 13456 ft | 309 kts | 53° |
| 2026-05-06 08:14 | 51.84552 | -1.48357 | 12883 ft | 342 kts | 54° |
| 2026-05-06 08:15 | 51.85910 | -1.45075 | 12311 ft | 369 kts | 54° |
| 2026-05-06 08:15 | 51.87376 | -1.41528 | 11728 ft | 389 kts | 55° |
| 2026-05-06 08:15 | 51.88909 | -1.37812 | 11149 ft | 404 kts | 54° |
| 2026-05-06 08:15 | 51.90452 | -1.34056 | 10557 ft | 387 kts | 55° |
| 2026-05-06 08:16 | 51.91877 | -1.30557 | 9968 ft | 358 kts | 55° |
| 2026-05-06 08:16 | 51.93193 | -1.27295 | 9319 ft | 334 kts | 54° |
| 2026-05-06 08:16 | 51.94815 | -1.24898 | 8434 ft | 312 kts | 19° |
| 2026-05-06 08:16 | 51.96882 | -1.24793 | 7883 ft | 290 kts | 344° |
| 2026-05-06 08:17 | 51.98544 | -1.26391 | 7384 ft | 275 kts | 316° |
| 2026-05-06 08:17 | 51.99477 | -1.29033 | 6757 ft | 271 kts | 288° |
| 2026-05-06 08:17 | 51.99526 | -1.32023 | 6476 ft | 257 kts | 262° |
| 2026-05-06 08:17 | 51.99092 | -1.34741 | 6171 ft | 244 kts | 259° |
| 2026-05-06 08:18 | 51.98645 | -1.37284 | 6087 ft | 226 kts | 258° |
| 2026-05-06 08:18 | 51.98207 | -1.39662 | 5944 ft | 211 kts | 258° |
| 2026-05-06 08:18 | 51.97793 | -1.41816 | 6069 ft | 194 kts | 259° |
| 2026-05-06 08:18 | 51.97451 | -1.43892 | 6155 ft | 188 kts | 262° |
| 2026-05-06 08:19 | 51.97130 | -1.46025 | 6318 ft | 211 kts | 255° |
| 2026-05-06 08:19 | 51.96154 | -1.48130 | 6047 ft | 260 kts | 221° |
| 2026-05-06 08:19 | 51.94392 | -1.49579 | 5590 ft | 303 kts | 199° |
| 2026-05-06 08:19 | 51.92210 | -1.50181 | 5203 ft | 331 kts | 187° |
| 2026-05-06 08:20 | 51.89932 | -1.50891 | 4893 ft | 340 kts | 196° |
| 2026-05-06 08:20 | 51.87709 | -1.52239 | 4470 ft | 335 kts | 206° |
| 2026-05-06 08:20 | 51.85682 | -1.53820 | 4202 ft | 315 kts | 207° |
| 2026-05-06 08:20 | 51.83825 | -1.55365 | 4028 ft | 287 kts | 208° |
| 2026-05-06 08:21 | 51.82156 | -1.56857 | 3958 ft | 257 kts | 217° |
| 2026-05-06 08:21 | 51.81109 | -1.58812 | 4378 ft | 207 kts | 240° |
| 2026-05-06 08:21 | 51.80281 | -1.60477 | 4590 ft | 181 kts | 227° |
| 2026-05-06 08:21 | 51.79350 | -1.61854 | 4267 ft | 182 kts | 231° |
| 2026-05-06 08:22 | 51.78671 | -1.63583 | 3875 ft | 185 kts | 248° |
| 2026-05-06 08:22 | 51.78097 | -1.65486 | 3500 ft | 191 kts | 246° |
| 2026-05-06 08:22 | 51.77482 | -1.67411 | 3156 ft | 194 kts | 245° |
| 2026-05-06 08:22 | 51.76834 | -1.69308 | 2944 ft | 192 kts | 242° |
| 2026-05-06 08:23 | 51.76166 | -1.71149 | 2746 ft | 189 kts | 241° |
| 2026-05-06 08:23 | 51.75495 | -1.72969 | 2574 ft | 188 kts | 240° |
| 2026-05-06 08:23 | 51.74825 | -1.74760 | 2356 ft | 186 kts | 239° |
| 2026-05-06 08:23 | 51.73964 | -1.76248 | 2227 ft | 175 kts | 210° |
| 2026-05-06 08:24 | 51.72809 | -1.76674 | 2264 ft | 191 kts | 173° |
| 2026-05-06 08:24 | 51.71400 | -1.76117 | 2373 ft | 222 kts | 154° |
| 2026-05-06 08:24 | 51.70183 | -1.74626 | 2623 ft | 217 kts | 121° |
| 2026-05-06 08:24 | 51.70010 | -1.72464 | 2568 ft | 194 kts | 70° |
| 2026-05-06 08:25 | 51.70801 | -1.70655 | 2133 ft | 196 kts | 46° |
| 2026-05-06 08:25 | 51.71774 | -1.69286 | 2057 ft | 174 kts | 38° |
| 2026-05-06 08:25 | 51.72590 | -1.68038 | 1999 ft | 152 kts | 52° |
| 2026-05-06 08:25 | 51.73153 | -1.66628 | 1756 ft | 148 kts | 56° |
| 2026-05-06 08:26 | 51.73675 | -1.65288 | 1436 ft | 129 kts | 59° |
| 2026-05-06 08:26 | 51.73922 | -1.63998 | 1092 ft | 115 kts | 71° |
| 2026-05-06 08:26 | 51.74128 | -1.62812 | 829 ft | 106 kts | 68° |
| 2026-05-06 08:26 | 51.74359 | -1.61723 | 583 ft | 100 kts | 67° |
| 2026-05-06 08:27 | 51.74559 | -1.60666 | 370 ft | 96 kts | 69° |
| 2026-05-06 08:27 | 51.74729 | -1.59706 | 299 ft | 79 kts | 66° |
| 2026-05-06 08:27 | 51.74879 | -1.58959 | 288 ft | 63 kts | 75° |
| 2026-05-06 08:27 | 51.74985 | -1.58390 | 278 ft | 46 kts | 72° |
| 2026-05-06 08:28 | 51.75068 | -1.57916 | 279 ft | 41 kts | 74° |
| 2026-05-06 08:28 | 51.75148 | -1.57495 | 271 ft | 37 kts | 72° |
| 2026-05-06 08:28 | 51.75227 | -1.57094 | 266 ft | 40 kts | 72° |
| 2026-05-06 08:28 | 51.75305 | -1.56709 | 263 ft | 17 kts | 32° |
| 2026-05-06 08:29 | 51.75441 | -1.56748 | 264 ft | 25 kts | 343° |
| 2026-05-06 08:29 | 51.75583 | -1.56829 | 265 ft | 9 kts | 285° |
| 2026-05-06 08:29 | 51.75559 | -1.56999 | 265 ft | 19 kts | 254° |
| 2026-05-06 08:29 | 51.75548 | -1.57058 | 266 ft | 0 kts | 255° |